createdAt,value
2022-07-29T00:00:35.996Z,52.73
2022-07-29T00:03:05.925Z,52.79
2022-07-29T00:05:33.872Z,52.91
2022-07-29T00:08:01.676Z,53.02
2022-07-29T00:10:29.422Z,53.25
2022-07-29T00:12:57.314Z,53.17
2022-07-29T00:15:25.260Z,53.30
2022-07-29T00:17:53.244Z,53.18
2022-07-29T00:20:21.149Z,53.14
2022-07-29T00:22:48.915Z,53.16
2022-07-29T00:25:17.056Z,53.11
2022-07-29T00:27:46.775Z,53.00
2022-07-29T00:30:14.559Z,53.01
2022-07-29T00:32:42.392Z,52.84
2022-07-29T00:35:29.284Z,52.55
2022-07-29T00:37:57.086Z,52.74
2022-07-29T00:40:25.069Z,52.40
2022-07-29T00:42:53.292Z,52.25
2022-07-29T00:45:21.249Z,52.24
2022-07-29T00:47:49.916Z,51.96
2022-07-29T00:50:18.882Z,51.93
2022-07-29T00:52:46.765Z,52.14
2022-07-29T00:55:16.928Z,52.19
2022-07-29T00:57:46.327Z,51.94
2022-07-29T01:00:18.583Z,51.78
2022-07-29T01:02:49.314Z,51.66
2022-07-29T01:05:19.909Z,51.69
2022-07-29T01:07:52.216Z,51.76
2022-07-29T01:10:22.137Z,51.79
2022-07-29T01:12:52.360Z,51.53
2022-07-29T01:15:21.031Z,51.36
2022-07-29T01:18:00.767Z,51.32
2022-07-29T01:20:53.436Z,51.19
2022-07-29T01:23:48.825Z,51.08
2022-07-29T01:26:28.709Z,51.15
2022-07-29T01:29:18.189Z,50.85
2022-07-29T01:31:59.445Z,50.43
2022-07-29T01:34:42.226Z,50.35
2022-07-29T01:37:19.559Z,49.96
2022-07-29T01:39:50.574Z,49.82
2022-07-29T01:42:46.056Z,49.52
2022-07-29T01:45:19.656Z,49.32
2022-07-29T01:48:19.120Z,49.25
2022-07-29T01:50:54.784Z,49.35
2022-07-29T01:53:51.063Z,49.28
2022-07-29T01:56:59.225Z,49.13
2022-07-29T01:59:27.374Z,49.38
2022-07-29T02:01:58.526Z,49.18
2022-07-29T02:04:30.326Z,49.29
2022-07-29T02:07:02.337Z,49.20
2022-07-29T02:09:31.251Z,49.30
2022-07-29T02:12:02.301Z,48.96
2022-07-29T02:14:35.151Z,48.93
2022-07-29T02:17:04.096Z,48.81
2022-07-29T02:19:34.077Z,48.65
2022-07-29T02:22:03.157Z,48.62
2022-07-29T02:24:36.858Z,48.75
2022-07-29T02:27:08.472Z,48.68
2022-07-29T02:29:38.231Z,48.79
2022-07-29T02:32:08.485Z,48.93
2022-07-29T02:34:38.886Z,49.02
2022-07-29T02:37:07.128Z,48.91
2022-07-29T02:39:35.893Z,48.84
2022-07-29T02:42:08.528Z,49.02
2022-07-29T02:44:37.066Z,48.99
2022-07-29T02:47:41.545Z,48.72
2022-07-29T02:50:12.508Z,48.62
2022-07-29T02:53:14.017Z,48.53
2022-07-29T02:55:50.013Z,48.67
2022-07-29T02:58:29.346Z,48.67
2022-07-29T03:01:03.320Z,48.67
2022-07-29T03:03:36.960Z,48.66
2022-07-29T03:06:06.286Z,48.61
2022-07-29T03:08:35.855Z,48.55
2022-07-29T03:11:05.705Z,48.54
2022-07-29T03:13:34.257Z,48.57
2022-07-29T03:16:03.895Z,48.62
2022-07-29T03:18:32.664Z,48.62
2022-07-29T03:21:00.991Z,48.49
2022-07-29T03:23:28.906Z,48.20
2022-07-29T03:26:03.752Z,48.05
2022-07-29T03:28:31.959Z,48.08
2022-07-29T03:31:00.486Z,48.20
2022-07-29T03:33:31.390Z,48.26
2022-07-29T03:35:59.354Z,48.30
2022-07-29T03:38:31.532Z,48.22
2022-07-29T03:41:04.528Z,48.42
2022-07-29T03:43:35.616Z,48.20
2022-07-29T03:46:06.934Z,48.30
2022-07-29T03:48:40.841Z,48.59
2022-07-29T03:51:09.006Z,48.60
2022-07-29T03:53:37.602Z,48.47
2022-07-29T03:56:08.129Z,48.49
2022-07-29T03:58:39.659Z,48.36
2022-07-29T04:01:07.449Z,48.43
2022-07-29T04:03:36.497Z,48.54
2022-07-29T04:06:07.777Z,48.58
2022-07-29T04:08:35.770Z,48.80
2022-07-29T04:11:04.859Z,48.88
2022-07-29T04:13:33.910Z,48.78
2022-07-29T04:16:01.720Z,48.93
2022-07-29T04:18:29.544Z,48.83
2022-07-29T04:20:57.337Z,48.70
2022-07-29T04:23:25.073Z,48.57
2022-07-29T04:25:52.888Z,48.43
2022-07-29T04:28:20.658Z,48.24
2022-07-29T04:30:48.565Z,48.09
2022-07-29T04:33:17.419Z,47.87
2022-07-29T04:35:50.087Z,47.74
2022-07-29T04:38:20.469Z,47.58
2022-07-29T04:40:49.734Z,47.15
2022-07-29T04:43:23.219Z,46.74
2022-07-29T04:45:51.668Z,46.63
2022-07-29T04:48:19.652Z,46.33
2022-07-29T04:50:48.440Z,45.68
2022-07-29T04:53:16.327Z,44.73
2022-07-29T04:55:44.294Z,44.37
2022-07-29T04:58:12.871Z,43.81
2022-07-29T05:00:41.363Z,42.39
2022-07-29T05:03:09.241Z,41.90
2022-07-29T05:05:37.177Z,40.78
2022-07-29T05:08:05.292Z,39.91
2022-07-29T05:10:33.762Z,39.08
2022-07-29T05:13:01.638Z,38.52
2022-07-29T05:15:29.449Z,37.89
2022-07-29T05:17:57.871Z,36.93
2022-07-29T05:20:29.267Z,36.80
2022-07-29T05:22:58.699Z,36.09
2022-07-29T05:25:43.608Z,36.32
2022-07-29T05:28:12.442Z,35.69
2022-07-29T05:30:40.311Z,35.24
2022-07-29T05:33:08.198Z,34.21
2022-07-29T05:36:00.181Z,33.07
2022-07-29T05:38:28.857Z,33.58
2022-07-29T05:40:59.648Z,33.26
2022-07-29T05:43:28.699Z,33.11
2022-07-29T05:45:57.258Z,33.48
2022-07-29T05:48:25.409Z,34.38
2022-07-29T05:50:53.354Z,34.65
2022-07-29T05:53:21.327Z,34.57
2022-07-29T05:55:50.321Z,34.24
2022-07-29T05:58:18.167Z,33.95
2022-07-29T06:00:46.213Z,34.28
2022-07-29T06:03:14.086Z,33.60
2022-07-29T06:05:41.916Z,33.44
2022-07-29T06:08:09.743Z,33.12
2022-07-29T06:10:38.907Z,31.96
2022-07-29T06:13:06.794Z,31.14
2022-07-29T06:15:35.133Z,30.95
2022-07-29T06:18:03.133Z,29.94
2022-07-29T06:20:32.538Z,29.74
2022-07-29T06:23:00.908Z,29.61
2022-07-29T06:25:31.856Z,28.95
2022-07-29T06:27:59.714Z,28.78
2022-07-29T06:30:27.779Z,28.37
2022-07-29T06:32:56.297Z,27.93
2022-07-29T06:35:41.144Z,27.61
2022-07-29T06:38:30.406Z,27.48
2022-07-29T06:41:11.151Z,27.61
2022-07-29T06:43:52.572Z,27.42
2022-07-29T06:46:23.938Z,26.86
2022-07-29T06:48:53.534Z,27.05
2022-07-29T06:51:23.909Z,27.09
2022-07-29T06:54:01.837Z,26.94
2022-07-29T06:56:39.595Z,26.30
2022-07-29T06:59:10.539Z,26.31
2022-07-29T07:01:40.655Z,26.85
2022-07-29T07:04:12.326Z,27.58
2022-07-29T07:06:40.606Z,28.18
2022-07-29T07:09:08.455Z,28.55
2022-07-29T07:11:36.533Z,28.58
2022-07-29T07:14:04.629Z,28.19
2022-07-29T07:16:33.150Z,27.85
2022-07-29T07:19:01.878Z,28.33
2022-07-29T07:21:31.018Z,28.85
2022-07-29T07:24:00.395Z,29.52
2022-07-29T07:26:28.633Z,29.71
2022-07-29T07:28:56.558Z,29.24
2022-07-29T07:31:24.453Z,28.87
2022-07-29T07:33:54.581Z,28.70
2022-07-29T07:36:23.474Z,28.73
2022-07-29T07:38:51.717Z,28.96
2022-07-29T07:41:19.597Z,29.12
2022-07-29T07:43:47.672Z,28.68
2022-07-29T07:46:16.321Z,28.15
2022-07-29T07:48:44.650Z,27.83
2022-07-29T07:51:13.000Z,27.54
2022-07-29T07:53:41.003Z,26.91
2022-07-29T07:56:11.863Z,27.56
2022-07-29T07:58:40.687Z,28.21
2022-07-29T08:01:10.137Z,28.70
2022-07-29T08:03:38.945Z,29.21
2022-07-29T08:06:07.690Z,29.72
2022-07-29T08:08:35.600Z,30.27
2022-07-29T08:11:09.007Z,30.53
2022-07-29T08:13:39.125Z,29.93
2022-07-29T08:16:14.265Z,28.96
2022-07-29T08:18:43.439Z,27.86
2022-07-29T08:21:14.781Z,26.58
2022-07-29T08:23:59.626Z,25.86
2022-07-29T08:26:29.730Z,25.67
2022-07-29T08:28:57.544Z,25.45
2022-07-29T08:31:25.596Z,25.57
2022-07-29T08:33:53.537Z,25.42
2022-07-29T08:36:22.134Z,24.83
2022-07-29T08:38:50.666Z,24.33
2022-07-29T08:41:20.620Z,24.15
2022-07-29T08:43:50.176Z,23.34
2022-07-29T08:46:18.671Z,23.35
2022-07-29T08:48:47.133Z,22.92
2022-07-29T08:51:17.886Z,23.07
2022-07-29T08:53:49.439Z,22.93
2022-07-29T08:56:20.444Z,23.43
2022-07-29T08:58:52.180Z,23.11
2022-07-29T09:01:35.141Z,23.34
2022-07-29T09:04:07.463Z,23.71
2022-07-29T09:06:38.648Z,23.70
2022-07-29T09:09:08.511Z,24.03
2022-07-29T09:11:36.674Z,24.27
2022-07-29T09:14:04.673Z,23.62
2022-07-29T09:16:54.153Z,23.97
2022-07-29T09:19:30.024Z,24.44
2022-07-29T09:21:59.949Z,24.66
2022-07-29T09:24:39.588Z,24.88
2022-07-29T09:27:18.765Z,25.47
2022-07-29T09:29:46.780Z,26.31
2022-07-29T09:32:14.694Z,26.98
2022-07-29T09:34:42.413Z,27.24
2022-07-29T09:37:12.765Z,27.37
2022-07-29T09:39:47.378Z,27.06
2022-07-29T09:42:29.376Z,26.96
2022-07-29T09:44:57.390Z,27.49
2022-07-29T09:47:42.555Z,27.80
2022-07-29T09:50:10.409Z,28.17
2022-07-29T09:52:54.718Z,28.60
2022-07-29T09:55:22.545Z,29.05
2022-07-29T09:57:50.361Z,29.38
2022-07-29T10:00:20.509Z,29.79
2022-07-29T10:02:48.768Z,30.17
2022-07-29T10:05:36.582Z,30.75
2022-07-29T10:08:06.007Z,30.96
2022-07-29T10:10:36.699Z,31.21
2022-07-29T10:13:11.023Z,31.32
2022-07-29T10:15:46.368Z,31.54
2022-07-29T10:18:16.133Z,31.38
2022-07-29T10:20:44.356Z,31.09
2022-07-29T10:23:12.473Z,30.38
2022-07-29T10:25:45.641Z,30.32
2022-07-29T10:28:16.727Z,29.89
2022-07-29T10:30:46.643Z,29.81
2022-07-29T10:33:32.821Z,29.75
2022-07-29T10:36:25.284Z,30.35
2022-07-29T10:39:03.490Z,30.43
2022-07-29T10:41:56.685Z,30.63
2022-07-29T10:44:26.655Z,30.98
2022-07-29T10:46:55.813Z,31.10
2022-07-29T10:49:30.331Z,30.67
2022-07-29T10:51:59.250Z,30.32
2022-07-29T10:54:55.024Z,29.82
2022-07-29T10:57:53.226Z,29.60
2022-07-29T11:00:19.604Z,29.37
2022-07-29T11:02:52.357Z,29.22
2022-07-29T11:05:22.178Z,29.41
2022-07-29T11:08:20.206Z,29.44
2022-07-29T11:10:49.958Z,29.92
2022-07-29T11:13:42.978Z,30.09
2022-07-29T11:16:16.023Z,30.44
2022-07-29T11:19:26.414Z,30.30
2022-07-29T11:21:58.886Z,30.13
2022-07-29T11:24:35.698Z,29.99
2022-07-29T11:27:13.365Z,30.08
2022-07-29T11:29:56.473Z,30.00
2022-07-29T11:32:29.511Z,30.24
2022-07-29T11:35:37.286Z,30.72
2022-07-29T11:38:27.935Z,30.76
2022-07-29T11:41:25.390Z,30.91
2022-07-29T11:44:01.580Z,30.83
2022-07-29T11:46:50.515Z,30.72
2022-07-29T11:49:32.789Z,30.36
2022-07-29T11:52:05.487Z,30.67
2022-07-29T11:54:57.117Z,30.30
2022-07-29T11:57:36.260Z,30.29
2022-07-29T12:00:12.353Z,30.07
2022-07-29T12:02:48.721Z,30.12
2022-07-29T12:05:35.934Z,29.71
2022-07-29T12:08:15.058Z,29.96
2022-07-29T12:10:44.327Z,30.07
2022-07-29T12:13:12.575Z,30.08
2022-07-29T12:15:47.232Z,30.66
2022-07-29T12:18:19.553Z,30.63
2022-07-29T12:21:06.147Z,30.68
2022-07-29T12:23:37.137Z,30.70
2022-07-29T12:26:07.200Z,30.90
2022-07-29T12:28:39.950Z,30.93
2022-07-29T12:31:15.141Z,30.58
2022-07-29T12:34:03.259Z,30.71
2022-07-29T12:36:31.453Z,30.96
2022-07-29T12:38:59.371Z,30.74
2022-07-29T12:41:30.084Z,30.54
2022-07-29T12:43:58.039Z,30.36
2022-07-29T12:46:26.269Z,30.55
2022-07-29T12:48:56.119Z,30.59
2022-07-29T12:51:37.647Z,30.86
2022-07-29T12:54:14.613Z,30.82
2022-07-29T12:56:45.325Z,30.77
2022-07-29T12:59:21.909Z,30.76
2022-07-29T13:01:52.225Z,30.92
2022-07-29T13:04:29.508Z,30.84
2022-07-29T13:07:04.545Z,30.97
2022-07-29T13:09:44.190Z,31.09
2022-07-29T13:12:14.651Z,31.01
2022-07-29T13:14:44.859Z,31.41
2022-07-29T13:17:20.390Z,31.53
2022-07-29T13:19:53.603Z,31.52
2022-07-29T13:22:23.893Z,31.52
2022-07-29T13:24:57.038Z,31.64
2022-07-29T13:27:28.924Z,31.75
2022-07-29T13:29:59.799Z,31.71
2022-07-29T13:32:29.666Z,31.88
2022-07-29T13:34:59.795Z,32.16
2022-07-29T13:37:30.746Z,32.50
2022-07-29T13:39:58.717Z,32.46
2022-07-29T13:42:27.304Z,32.20
2022-07-29T13:44:55.521Z,32.51
2022-07-29T13:47:32.395Z,33.03
2022-07-29T13:50:02.280Z,32.87
2022-07-29T13:52:30.356Z,32.84
2022-07-29T13:54:58.219Z,32.53
2022-07-29T13:57:26.066Z,32.74
2022-07-29T13:59:54.550Z,32.64
2022-07-29T14:02:25.791Z,32.99
2022-07-29T14:04:55.233Z,33.22
2022-07-29T14:07:24.313Z,33.37
2022-07-29T14:09:52.256Z,32.68
2022-07-29T14:12:20.443Z,32.77
2022-07-29T14:14:48.319Z,33.14
2022-07-29T14:17:16.688Z,33.14
2022-07-29T14:19:44.586Z,33.36
2022-07-29T14:22:12.355Z,33.65
2022-07-29T14:24:40.574Z,33.61
2022-07-29T14:27:09.408Z,33.36
2022-07-29T14:29:38.755Z,33.49
2022-07-29T14:32:08.385Z,33.44
2022-07-29T14:34:38.037Z,33.38
2022-07-29T14:37:07.632Z,33.35
2022-07-29T14:39:43.191Z,33.54
2022-07-29T14:42:12.808Z,33.82
2022-07-29T14:44:42.783Z,33.73
2022-07-29T14:47:11.256Z,33.79
2022-07-29T14:49:39.287Z,33.68
2022-07-29T14:52:07.163Z,33.65
2022-07-29T14:54:35.236Z,33.49
2022-07-29T14:57:03.044Z,33.45
2022-07-29T14:59:31.233Z,33.64
2022-07-29T15:01:59.663Z,33.69
2022-07-29T15:04:27.772Z,33.76
2022-07-29T15:06:55.556Z,33.95
2022-07-29T15:09:24.194Z,33.95
2022-07-29T15:11:52.040Z,34.08
2022-07-29T15:14:19.986Z,34.54
2022-07-29T15:16:48.366Z,34.59
2022-07-29T15:19:17.376Z,34.63
2022-07-29T15:21:48.813Z,34.65
2022-07-29T15:24:18.163Z,35.09
2022-07-29T15:26:46.855Z,35.02
2022-07-29T15:29:15.461Z,35.30
2022-07-29T15:31:44.295Z,35.65
2022-07-29T15:34:12.353Z,35.84
2022-07-29T15:36:55.523Z,36.06
2022-07-29T15:39:23.608Z,36.29
2022-07-29T15:41:52.012Z,36.30
2022-07-29T15:44:21.222Z,36.64
2022-07-29T15:47:08.996Z,36.73
2022-07-29T15:49:47.190Z,36.90
2022-07-29T15:52:26.191Z,37.35
2022-07-29T15:54:56.683Z,37.50
2022-07-29T15:57:30.314Z,38.11
2022-07-29T15:59:59.416Z,38.35
2022-07-29T16:02:27.323Z,38.69
2022-07-29T16:04:55.169Z,38.84
2022-07-29T16:07:22.981Z,38.78
2022-07-29T16:09:54.436Z,38.73
2022-07-29T16:12:22.651Z,39.05
2022-07-29T16:14:51.262Z,39.19
2022-07-29T16:17:20.184Z,39.31
2022-07-29T16:19:48.491Z,39.61
2022-07-29T16:22:16.578Z,39.37
2022-07-29T16:24:44.604Z,39.71
2022-07-29T16:27:12.713Z,39.75
2022-07-29T16:29:40.605Z,39.90
2022-07-29T16:32:08.475Z,40.28
2022-07-29T16:34:36.366Z,40.53
2022-07-29T16:37:05.136Z,40.46
2022-07-29T16:39:33.129Z,40.95
2022-07-29T16:42:03.945Z,41.25
2022-07-29T16:44:34.893Z,41.70
2022-07-29T16:47:03.908Z,42.22
2022-07-29T16:49:33.073Z,42.18
2022-07-29T16:52:01.021Z,43.02
2022-07-29T16:54:29.047Z,43.90
2022-07-29T16:56:57.197Z,45.13
2022-07-29T16:59:25.320Z,46.15
2022-07-29T17:01:53.176Z,47.19
2022-07-29T17:04:22.865Z,48.18
2022-07-29T17:06:51.086Z,49.18
2022-07-29T17:09:18.873Z,49.76
2022-07-29T17:11:53.508Z,50.22
2022-07-29T17:14:29.466Z,50.62
2022-07-29T17:17:05.946Z,51.03
2022-07-29T17:19:42.711Z,51.45
2022-07-29T17:22:17.109Z,51.60
2022-07-29T17:24:48.261Z,51.43
2022-07-29T17:27:16.507Z,51.18
2022-07-29T17:29:45.198Z,51.57
2022-07-29T17:32:14.431Z,51.85
2022-07-29T17:34:43.070Z,51.88
2022-07-29T17:37:12.118Z,52.10
2022-07-29T17:39:41.651Z,52.89
2022-07-29T17:42:14.340Z,53.91
2022-07-29T17:44:42.226Z,54.14
2022-07-29T17:47:15.896Z,54.48
2022-07-29T17:49:45.412Z,54.85
2022-07-29T17:52:13.551Z,55.05
2022-07-29T17:54:43.473Z,55.35
2022-07-29T17:57:12.370Z,55.34
2022-07-29T17:59:40.269Z,55.31
2022-07-29T18:02:10.140Z,55.40
2022-07-29T18:04:38.232Z,55.56
2022-07-29T18:07:06.177Z,55.48
2022-07-29T18:09:33.988Z,55.89
2022-07-29T18:12:01.777Z,56.34
2022-07-29T18:14:29.620Z,56.52
2022-07-29T18:16:57.712Z,57.11
2022-07-29T18:19:25.805Z,57.51
2022-07-29T18:22:04.911Z,57.82
2022-07-29T18:24:36.387Z,58.53
2022-07-29T18:27:04.373Z,59.03
2022-07-29T18:29:33.297Z,58.99
2022-07-29T18:32:01.852Z,59.50
2022-07-29T18:34:29.959Z,59.86
2022-07-29T18:36:57.958Z,60.07
2022-07-29T18:39:26.246Z,60.15
2022-07-29T18:41:54.007Z,60.25
2022-07-29T18:44:22.591Z,60.39
2022-07-29T18:46:54.449Z,60.56
2022-07-29T18:49:23.305Z,61.02
2022-07-29T18:51:51.459Z,61.06
2022-07-29T18:54:19.547Z,61.21
2022-07-29T18:56:47.548Z,61.35
2022-07-29T18:59:22.143Z,61.64
2022-07-29T19:01:50.433Z,62.01
2022-07-29T19:04:18.873Z,61.75
2022-07-29T19:06:46.830Z,61.93
2022-07-29T19:09:14.858Z,62.00
2022-07-29T19:11:43.232Z,62.23
2022-07-29T19:14:11.268Z,62.34
2022-07-29T19:16:39.162Z,62.30
2022-07-29T19:19:08.603Z,62.67
2022-07-29T19:21:36.564Z,62.64
2022-07-29T19:24:06.674Z,62.67
2022-07-29T19:26:39.051Z,62.83
2022-07-29T19:29:06.890Z,63.00
2022-07-29T19:31:34.971Z,62.95
2022-07-29T19:34:02.871Z,62.99
2022-07-29T19:36:31.451Z,63.10
2022-07-29T19:39:00.534Z,63.01
2022-07-29T19:41:28.703Z,63.00
2022-07-29T19:43:57.325Z,62.95
2022-07-29T19:46:25.441Z,62.70
2022-07-29T19:48:53.626Z,62.84
2022-07-29T19:51:25.161Z,63.03
2022-07-29T19:53:53.059Z,62.95
2022-07-29T19:56:21.018Z,62.76
2022-07-29T19:58:48.801Z,62.58
2022-07-29T20:01:16.906Z,62.78
2022-07-29T20:03:45.065Z,62.75
2022-07-29T20:06:13.568Z,62.93
2022-07-29T20:08:41.385Z,63.08
2022-07-29T20:11:09.598Z,63.34
2022-07-29T20:13:37.480Z,63.51
2022-07-29T20:16:08.301Z,63.63
2022-07-29T20:18:36.303Z,63.76
2022-07-29T20:21:04.840Z,64.05
2022-07-29T20:23:33.421Z,64.13
2022-07-29T20:26:03.464Z,64.22
2022-07-29T20:28:33.053Z,64.61
2022-07-29T20:31:00.936Z,64.69
2022-07-29T20:33:28.785Z,64.83
2022-07-29T20:35:56.758Z,65.30
2022-07-29T20:38:24.516Z,65.64
2022-07-29T20:40:54.529Z,65.84
2022-07-29T20:43:22.455Z,65.78
2022-07-29T20:45:50.282Z,65.89
2022-07-29T20:48:18.235Z,66.11
2022-07-29T20:50:47.659Z,66.45
2022-07-29T20:53:16.848Z,66.71
2022-07-29T20:55:45.142Z,66.89
2022-07-29T20:58:13.092Z,66.90
2022-07-29T21:00:40.827Z,66.78
2022-07-29T21:03:09.685Z,67.02
2022-07-29T21:05:38.315Z,67.19
2022-07-29T21:08:06.211Z,67.30
2022-07-29T21:10:34.025Z,67.45
2022-07-29T21:13:01.964Z,67.51
2022-07-29T21:15:30.535Z,67.67
2022-07-29T21:18:03.057Z,67.82
2022-07-29T21:20:31.307Z,68.10
2022-07-29T21:22:59.353Z,68.27
2022-07-29T21:25:28.418Z,68.27
2022-07-29T21:28:14.708Z,68.04
2022-07-29T21:30:43.689Z,67.79
2022-07-29T21:33:11.645Z,67.99
2022-07-29T21:36:06.301Z,67.89
2022-07-29T21:38:30.216Z,68.06
2022-07-29T21:40:59.103Z,68.01
2022-07-29T21:43:28.906Z,68.11
2022-07-29T21:45:58.904Z,68.35
2022-07-29T21:48:28.662Z,68.52
2022-07-29T21:50:57.309Z,68.86
2022-07-29T21:53:28.186Z,69.18
2022-07-29T21:55:56.109Z,69.22
2022-07-29T21:58:24.780Z,69.28
2022-07-29T22:00:52.839Z,69.22
2022-07-29T22:03:20.590Z,69.24
2022-07-29T22:05:48.429Z,69.15
2022-07-29T22:08:17.354Z,68.64
2022-07-29T22:10:45.521Z,68.48
2022-07-29T22:13:13.308Z,68.20
2022-07-29T22:15:45.340Z,68.02
2022-07-29T22:18:20.448Z,67.83
2022-07-29T22:20:50.265Z,67.73
2022-07-29T22:23:18.163Z,67.51
2022-07-29T22:25:45.967Z,67.52
2022-07-29T22:28:13.757Z,67.18
2022-07-29T22:30:41.890Z,66.71
2022-07-29T22:33:09.710Z,66.50
2022-07-29T22:35:48.477Z,66.34
2022-07-29T22:38:20.784Z,65.89
2022-07-29T22:40:50.742Z,65.71
2022-07-29T22:43:18.874Z,65.47
2022-07-29T22:45:46.866Z,65.11
2022-07-29T22:48:14.763Z,65.05
2022-07-29T22:50:42.735Z,64.89
2022-07-29T22:53:10.596Z,64.83
2022-07-29T22:55:38.498Z,64.86
2022-07-29T22:58:06.385Z,64.72
2022-07-29T23:00:34.317Z,64.66
2022-07-29T23:03:02.139Z,64.55
2022-07-29T23:05:29.957Z,64.40
2022-07-29T23:07:57.795Z,64.47
2022-07-29T23:10:26.748Z,64.38
2022-07-29T23:12:54.606Z,64.06
2022-07-29T23:15:23.148Z,63.97
2022-07-29T23:17:50.951Z,63.79
2022-07-29T23:20:19.294Z,64.03
2022-07-29T23:22:47.144Z,64.04
2022-07-29T23:25:14.954Z,64.03
2022-07-29T23:27:42.740Z,63.84
2022-07-29T23:30:12.060Z,63.99
2022-07-29T23:32:39.905Z,63.99
2022-07-29T23:35:08.651Z,63.86
2022-07-29T23:37:36.676Z,63.94
2022-07-29T23:40:05.575Z,63.89
2022-07-29T23:42:33.334Z,63.75
2022-07-29T23:45:01.663Z,63.71
2022-07-29T23:47:29.464Z,63.72
2022-07-29T23:49:57.813Z,63.66
2022-07-29T23:52:25.635Z,63.66
2022-07-29T23:54:53.780Z,63.65
2022-07-29T23:57:24.587Z,63.63
2022-07-29T23:59:54.266Z,63.67
